createdAt,value
2022-11-06T00:00:19.351Z,94622.78
2022-11-06T00:02:46.182Z,94622.81
2022-11-06T00:05:32.009Z,94621.03
2022-11-06T00:07:58.696Z,94620.53
2022-11-06T00:10:25.656Z,94622.16
2022-11-06T00:12:52.544Z,94620.03
2022-11-06T00:15:19.292Z,94625.63
2022-11-06T00:17:50.009Z,94634.34
2022-11-06T00:20:17.391Z,94632.75
2022-11-06T00:22:44.205Z,94633.28
2022-11-06T00:25:11.604Z,94626.88
2022-11-06T00:27:39.617Z,94618.69
2022-11-06T00:30:08.723Z,94619.47
2022-11-06T00:32:35.683Z,94614.97
2022-11-06T00:35:02.318Z,94614.16
2022-11-06T00:37:29.005Z,94616.00
2022-11-06T00:39:55.650Z,94607.25
2022-11-06T00:42:22.308Z,94604.63
2022-11-06T00:44:49.199Z,94598.78
2022-11-06T00:47:15.974Z,94592.06
2022-11-06T00:49:42.617Z,94591.72
2022-11-06T00:52:09.329Z,94598.00
2022-11-06T00:54:36.028Z,94592.59
2022-11-06T00:57:02.682Z,94591.44
2022-11-06T00:59:29.390Z,94590.81
2022-11-06T01:01:56.296Z,94581.47
2022-11-06T01:04:24.577Z,94574.53
2022-11-06T01:06:54.445Z,94581.38
2022-11-06T01:09:24.380Z,94575.00
2022-11-06T01:14:42.074Z,94585.25
2022-11-06T01:17:08.786Z,94587.94
2022-11-06T01:19:35.595Z,94594.94
2022-11-06T01:22:02.294Z,94586.09
2022-11-06T01:24:29.752Z,94593.28
2022-11-06T01:29:44.388Z,94599.09
2022-11-06T01:32:11.579Z,94594.31
2022-11-06T01:34:38.428Z,94586.63
2022-11-06T01:37:05.460Z,94585.50
2022-11-06T01:39:32.312Z,94586.53
2022-11-06T01:41:59.074Z,94587.56
2022-11-06T01:44:31.857Z,94580.63
2022-11-06T01:46:59.325Z,94575.25
2022-11-06T01:49:27.675Z,94568.38
2022-11-06T01:51:59.041Z,94577.97
2022-11-06T01:54:28.392Z,94578.03
2022-11-06T01:56:57.438Z,94576.00
2022-11-06T01:59:28.502Z,94565.03
2022-11-06T02:01:55.368Z,94570.44
2022-11-06T02:04:31.807Z,94573.13
2022-11-06T02:06:59.877Z,94558.63
2022-11-06T02:09:29.837Z,94567.34
2022-11-06T02:12:27.370Z,94565.81
2022-11-06T02:15:07.019Z,94566.91
2022-11-06T02:17:56.338Z,94568.25
2022-11-06T02:20:32.211Z,94570.09
2022-11-06T02:23:02.104Z,94573.00
2022-11-06T02:26:02.332Z,94573.81
2022-11-06T02:28:48.478Z,94569.59
2022-11-06T02:31:21.525Z,94573.28
2022-11-06T02:33:55.443Z,94573.53
2022-11-06T02:36:30.663Z,94574.34
2022-11-06T02:39:01.827Z,94574.38
2022-11-06T02:41:33.768Z,94569.91
2022-11-06T02:44:03.466Z,94573.34
2022-11-06T02:46:40.020Z,94560.38
2022-11-06T02:49:17.229Z,94562.00
2022-11-06T02:51:50.517Z,94572.81
2022-11-06T02:54:21.933Z,94569.09
2022-11-06T02:56:52.242Z,94564.34
2022-11-06T02:59:32.074Z,94546.09
2022-11-06T03:02:03.718Z,94541.06
2022-11-06T03:04:45.375Z,94547.94
2022-11-06T03:07:29.125Z,94535.25
2022-11-06T03:09:57.747Z,94532.34
2022-11-06T03:12:30.514Z,94531.28
2022-11-06T03:15:32.447Z,94528.38
2022-11-06T03:18:09.234Z,94537.63
2022-11-06T03:20:42.088Z,94535.72
2022-11-06T03:23:16.519Z,94536.81
2022-11-06T03:25:51.152Z,94537.88
2022-11-06T03:28:37.973Z,94529.41
2022-11-06T03:31:13.765Z,94528.88
2022-11-06T03:33:49.377Z,94526.78
2022-11-06T03:36:18.957Z,94513.22
2022-11-06T03:38:59.248Z,94520.88
2022-11-06T03:41:33.835Z,94517.63
2022-11-06T03:44:04.731Z,94502.56
2022-11-06T03:46:33.315Z,94507.38
2022-11-06T03:49:04.945Z,94508.63
2022-11-06T03:51:40.421Z,94497.13
2022-11-06T03:54:15.791Z,94495.22
2022-11-06T03:56:53.301Z,94497.22
2022-11-06T03:59:25.286Z,94495.19
2022-11-06T04:01:55.574Z,94480.50
2022-11-06T04:04:27.964Z,94489.69
2022-11-06T04:07:02.310Z,94485.66
2022-11-06T04:09:52.488Z,94478.06
2022-11-06T04:12:41.285Z,94482.56
2022-11-06T04:15:12.730Z,94483.63
2022-11-06T04:17:40.970Z,94484.31
2022-11-06T04:20:12.221Z,94487.06
2022-11-06T04:22:50.910Z,94479.28
2022-11-06T04:25:56.967Z,94480.38
2022-11-06T04:28:43.924Z,94479.31
2022-11-06T04:31:30.084Z,94474.50
2022-11-06T04:34:18.628Z,94469.72
2022-11-06T04:36:56.193Z,94467.16
2022-11-06T04:39:31.759Z,94465.88
2022-11-06T04:42:08.793Z,94470.41
2022-11-06T04:44:41.102Z,94471.22
2022-11-06T04:47:11.910Z,94471.00
2022-11-06T04:49:42.092Z,94460.88
2022-11-06T04:52:15.069Z,94463.50
2022-11-06T04:54:42.051Z,94461.75
2022-11-06T04:57:08.837Z,94456.75
2022-11-06T04:59:37.333Z,94451.53
2022-11-06T05:02:05.888Z,94439.13
2022-11-06T05:04:33.733Z,94435.19
2022-11-06T05:07:00.592Z,94438.34
2022-11-06T05:09:27.250Z,94440.72
2022-11-06T05:11:54.259Z,94438.06
2022-11-06T05:14:20.945Z,94431.53
2022-11-06T05:16:47.678Z,94422.84
2022-11-06T05:19:14.465Z,94418.34
2022-11-06T05:21:59.655Z,94403.06
2022-11-06T05:24:26.319Z,94399.38
2022-11-06T05:26:58.900Z,94405.22
2022-11-06T05:29:26.556Z,94405.75
2022-11-06T05:31:53.475Z,94401.25
2022-11-06T05:34:21.541Z,94408.63
2022-11-06T05:36:48.210Z,94401.97
2022-11-06T05:39:15.165Z,94396.13
2022-11-06T05:41:41.895Z,94397.16
2022-11-06T05:44:08.658Z,94398.72
2022-11-06T05:46:48.163Z,94407.75
2022-11-06T05:49:16.660Z,94410.91
2022-11-06T05:51:43.323Z,94411.97
2022-11-06T05:54:10.050Z,94421.75
2022-11-06T05:56:36.752Z,94438.41
2022-11-06T05:59:03.766Z,94426.78
2022-11-06T06:01:30.537Z,94417.03
2022-11-06T06:03:57.312Z,94423.63
2022-11-06T06:06:24.078Z,94432.38
2022-11-06T06:08:50.781Z,94438.94
2022-11-06T06:11:17.487Z,94443.13
2022-11-06T06:13:44.386Z,94446.56
2022-11-06T06:16:11.123Z,94445.81
2022-11-06T06:18:37.853Z,94443.53
2022-11-06T06:21:04.799Z,94449.09
2022-11-06T06:23:32.435Z,94446.19
2022-11-06T06:25:59.127Z,94438.53
2022-11-06T06:28:25.900Z,94433.78
2022-11-06T06:30:57.159Z,94433.84
2022-11-06T06:33:26.882Z,94429.63
2022-11-06T06:35:53.560Z,94428.28
2022-11-06T06:38:20.289Z,94423.78
2022-11-06T06:40:47.098Z,94432.50
2022-11-06T06:43:13.839Z,94435.91
2022-11-06T06:45:40.546Z,94427.69
2022-11-06T06:48:07.697Z,94435.63
2022-11-06T06:50:34.347Z,94448.34
2022-11-06T06:53:01.214Z,94451.75
2022-11-06T06:55:27.971Z,94450.16
2022-11-06T06:57:59.500Z,94450.16
2022-11-06T07:00:27.849Z,94455.72
2022-11-06T07:02:54.978Z,94451.28
2022-11-06T07:05:21.703Z,94460.25
2022-11-06T07:07:48.563Z,94462.34
2022-11-06T07:10:15.443Z,94460.72
2022-11-06T07:12:42.160Z,94466.53
2022-11-06T07:15:09.603Z,94461.47
2022-11-06T07:17:36.312Z,94464.34
2022-11-06T07:20:03.461Z,94450.88
2022-11-06T07:22:36.709Z,94450.09
2022-11-06T07:25:05.935Z,94450.59
2022-11-06T07:27:33.780Z,94454.56
2022-11-06T07:30:00.743Z,94448.75
2022-11-06T07:32:28.140Z,94447.16
2022-11-06T07:34:55.012Z,94440.00
2022-11-06T07:37:21.907Z,94423.56
2022-11-06T07:39:48.555Z,94426.19
2022-11-06T07:42:15.247Z,94421.66
2022-11-06T07:44:55.924Z,94417.88
2022-11-06T07:47:23.030Z,94409.63
2022-11-06T07:49:51.067Z,94403.56
2022-11-06T07:52:18.095Z,94398.63
2022-11-06T07:54:44.800Z,94400.22
2022-11-06T07:57:11.477Z,94390.13
2022-11-06T07:59:38.176Z,94385.31
2022-11-06T08:02:05.509Z,94385.31
2022-11-06T08:04:32.323Z,94376.81
2022-11-06T08:06:59.014Z,94383.13
2022-11-06T08:09:25.769Z,94381.63
2022-11-06T08:11:52.446Z,94373.09
2022-11-06T08:14:19.119Z,94376.09
2022-11-06T08:16:45.773Z,94366.88
2022-11-06T08:19:12.488Z,94358.94
2022-11-06T08:21:39.368Z,94364.31
2022-11-06T08:24:06.882Z,94355.06
2022-11-06T08:26:33.748Z,94345.31
2022-11-06T08:29:00.675Z,94335.53
2022-11-06T08:31:27.416Z,94341.56
2022-11-06T08:33:54.505Z,94339.44
2022-11-06T08:36:21.160Z,94340.16
2022-11-06T08:38:48.676Z,94337.25
2022-11-06T08:41:16.397Z,94338.56
2022-11-06T08:43:43.049Z,94331.44
2022-11-06T08:46:10.862Z,94323.03
2022-11-06T08:48:37.552Z,94305.81
2022-11-06T08:51:05.440Z,94303.91
2022-11-06T08:53:32.253Z,94303.16
2022-11-06T08:55:58.976Z,94292.34
2022-11-06T08:58:25.748Z,94278.25
2022-11-06T09:00:52.576Z,94282.41
2022-11-06T09:03:19.427Z,94274.81
2022-11-06T09:05:46.552Z,94270.59
2022-11-06T09:08:13.842Z,94272.38
2022-11-06T09:10:42.468Z,94267.81
2022-11-06T09:13:10.247Z,94264.75
2022-11-06T09:15:37.979Z,94274.00
2022-11-06T09:18:04.905Z,94265.28
2022-11-06T09:20:31.661Z,94273.75
2022-11-06T09:23:04.475Z,94272.22
2022-11-06T09:25:31.443Z,94271.13
2022-11-06T09:28:00.006Z,94268.59
2022-11-06T09:30:28.963Z,94263.28
2022-11-06T09:32:58.042Z,94266.16
2022-11-06T09:35:26.590Z,94258.22
2022-11-06T09:37:53.379Z,94262.34
2022-11-06T09:40:26.651Z,94254.41
2022-11-06T09:42:58.422Z,94246.19
2022-11-06T09:45:29.709Z,94254.59
2022-11-06T09:48:18.799Z,94249.78
2022-11-06T09:51:20.022Z,94244.19
2022-11-06T09:54:00.318Z,94245.69
2022-11-06T09:56:32.153Z,94257.28
2022-11-06T09:59:01.465Z,94249.88
2022-11-06T10:01:40.403Z,94243.28
2022-11-06T10:04:20.644Z,94244.50
2022-11-06T10:06:47.454Z,94249.66
2022-11-06T10:09:14.219Z,94249.03
2022-11-06T10:11:52.947Z,94251.03
2022-11-06T10:14:28.097Z,94254.72
2022-11-06T10:17:11.255Z,94247.00
2022-11-06T10:19:55.414Z,94247.28
2022-11-06T10:22:41.748Z,94247.66
2022-11-06T10:25:22.300Z,94239.50
2022-11-06T10:28:04.588Z,94237.34
2022-11-06T10:31:01.724Z,94215.25
2022-11-06T10:33:38.606Z,94210.47
2022-11-06T10:36:15.519Z,94207.25
2022-11-06T10:38:47.339Z,94219.53
2022-11-06T10:41:21.600Z,94231.47
2022-11-06T10:44:13.973Z,94246.88
2022-11-06T10:46:46.673Z,94242.25
2022-11-06T10:49:32.085Z,94250.97
2022-11-06T10:52:23.612Z,94251.75
2022-11-06T10:55:09.398Z,94236.41
2022-11-06T10:57:39.015Z,94226.25
2022-11-06T11:00:11.126Z,94224.56
2022-11-06T11:02:51.841Z,94214.16
2022-11-06T11:05:21.779Z,94204.81
2022-11-06T11:07:50.037Z,94210.50
2022-11-06T11:10:34.354Z,94213.78
2022-11-06T11:13:08.143Z,94220.84
2022-11-06T11:15:45.878Z,94223.59
2022-11-06T11:18:12.773Z,94222.94
2022-11-06T11:20:50.233Z,94220.19
2022-11-06T11:23:23.343Z,94216.41
2022-11-06T11:25:56.237Z,94201.88
2022-11-06T11:28:33.447Z,94189.25
2022-11-06T11:31:10.161Z,94177.34
2022-11-06T11:33:39.223Z,94157.19
2022-11-06T11:36:08.954Z,94143.81
2022-11-06T11:38:38.546Z,94138.50
2022-11-06T11:41:07.245Z,94139.88
2022-11-06T11:43:34.332Z,94127.47
2022-11-06T11:46:10.003Z,94127.09
2022-11-06T11:48:47.731Z,94125.50
2022-11-06T11:51:29.944Z,94109.09
2022-11-06T11:54:21.418Z,94113.13
2022-11-06T11:57:10.297Z,94107.19
2022-11-06T11:59:44.662Z,94102.00
2022-11-06T12:02:14.382Z,94091.59
2022-11-06T12:04:43.728Z,94085.00
2022-11-06T12:07:53.683Z,94080.44
2022-11-06T12:10:40.858Z,94080.66
2022-11-06T12:13:21.385Z,94061.94
2022-11-06T12:16:00.451Z,94061.56
2022-11-06T12:18:35.274Z,94048.97
2022-11-06T12:21:08.458Z,94042.50
2022-11-06T12:23:54.021Z,94031.31
2022-11-06T12:26:46.468Z,94034.66
2022-11-06T12:29:17.582Z,94036.78
2022-11-06T12:31:59.363Z,94036.31
2022-11-06T12:34:37.682Z,94030.31
2022-11-06T12:37:11.013Z,94025.00
2022-11-06T12:39:42.469Z,94016.63
2022-11-06T12:42:12.774Z,94030.50
2022-11-06T12:44:39.628Z,94023.63
2022-11-06T12:47:33.342Z,94008.69
2022-11-06T12:50:45.145Z,94004.31
2022-11-06T12:53:20.617Z,94014.94
2022-11-06T12:55:56.564Z,94004.81
2022-11-06T12:58:45.008Z,94014.50
2022-11-06T13:01:21.440Z,94012.34
2022-11-06T13:04:25.587Z,94018.84
2022-11-06T13:07:01.053Z,94010.56
2022-11-06T13:09:47.632Z,93995.03
2022-11-06T13:12:37.431Z,93995.03
2022-11-06T13:15:16.251Z,93998.38
2022-11-06T13:17:55.906Z,94002.97
2022-11-06T13:20:32.781Z,94014.09
2022-11-06T13:23:19.744Z,94015.06
2022-11-06T13:26:08.798Z,93995.84
2022-11-06T13:28:46.947Z,93993.38
2022-11-06T13:31:17.749Z,93983.72
2022-11-06T13:33:51.336Z,93988.63
2022-11-06T13:36:20.202Z,93990.53
2022-11-06T13:38:52.648Z,93986.19
2022-11-06T13:41:22.304Z,93971.03
2022-11-06T13:43:54.622Z,93972.59
2022-11-06T13:46:43.111Z,93967.47
2022-11-06T13:49:16.804Z,93959.69
2022-11-06T13:51:49.561Z,93957.03
2022-11-06T13:54:31.432Z,93959.50
2022-11-06T13:57:22.518Z,93961.06
2022-11-06T14:00:31.105Z,93942.31
2022-11-06T14:03:09.740Z,93945.94
2022-11-06T14:06:02.780Z,93931.13
2022-11-06T14:08:46.150Z,93941.16
2022-11-06T14:11:19.311Z,93940.84
2022-11-06T14:14:04.466Z,93948.22
2022-11-06T14:16:37.514Z,93946.00
2022-11-06T14:19:06.744Z,93957.13
2022-11-06T14:21:36.386Z,93959.34
2022-11-06T14:24:19.752Z,93967.06
2022-11-06T14:26:49.102Z,93956.41
2022-11-06T14:29:27.998Z,93951.25
2022-11-06T14:32:02.328Z,93943.59
2022-11-06T14:34:31.407Z,93938.28
2022-11-06T14:36:58.202Z,93943.94
2022-11-06T14:39:55.991Z,93941.91
2022-11-06T14:42:36.559Z,93932.84
2022-11-06T14:45:06.499Z,93928.94
2022-11-06T14:47:56.896Z,93937.72
2022-11-06T14:50:25.670Z,93947.75
2022-11-06T14:53:00.578Z,93956.22
2022-11-06T14:55:57.347Z,93953.38
2022-11-06T14:58:27.258Z,93949.47
2022-11-06T15:01:03.345Z,93951.50
2022-11-06T15:03:54.158Z,93956.22
2022-11-06T15:06:33.198Z,93956.69
2022-11-06T15:09:00.126Z,93947.75
2022-11-06T15:11:29.928Z,93949.63
2022-11-06T15:14:04.578Z,93943.22
2022-11-06T15:16:43.431Z,93940.88
2022-11-06T15:19:21.636Z,93942.56
2022-11-06T15:21:56.335Z,93946.94
2022-11-06T15:24:29.151Z,93945.66
2022-11-06T15:26:59.554Z,93941.59
2022-11-06T15:29:29.335Z,93940.50
2022-11-06T15:32:03.005Z,93936.75
2022-11-06T15:34:36.749Z,93943.66
2022-11-06T15:37:17.765Z,93941.47
2022-11-06T15:39:47.550Z,93943.22
2022-11-06T15:42:18.196Z,93936.19
2022-11-06T15:44:46.581Z,93936.03
2022-11-06T15:47:21.012Z,93938.06
2022-11-06T15:49:47.751Z,93930.22
2022-11-06T15:52:18.646Z,93920.50
2022-11-06T15:54:45.552Z,93932.22
2022-11-06T15:57:22.023Z,93932.06
2022-11-06T15:59:48.973Z,93928.91
2022-11-06T16:02:20.510Z,93920.94
2022-11-06T16:04:49.183Z,93927.19
2022-11-06T16:07:18.061Z,93925.44
2022-11-06T16:09:46.327Z,93923.88
2022-11-06T16:12:15.924Z,93924.66
2022-11-06T16:14:46.824Z,93921.22
2022-11-06T16:17:21.362Z,93919.47
2022-11-06T16:19:49.678Z,93912.41
2022-11-06T16:22:29.610Z,93914.44
2022-11-06T16:25:02.896Z,93907.84
2022-11-06T16:27:35.527Z,93921.94
2022-11-06T16:30:06.572Z,93937.59
2022-11-06T16:32:39.778Z,93929.91
2022-11-06T16:35:32.857Z,93935.72
2022-11-06T16:38:42.025Z,93936.63
2022-11-06T16:41:11.275Z,93941.75
2022-11-06T16:43:38.477Z,93933.31
2022-11-06T16:46:08.073Z,93936.25
2022-11-06T16:48:42.344Z,93940.97
2022-11-06T16:51:10.774Z,93945.22
2022-11-06T16:53:51.585Z,93950.22
2022-11-06T16:56:24.599Z,93940.19
2022-11-06T16:59:02.643Z,93942.38
2022-11-06T17:01:37.726Z,93942.06
2022-11-06T17:04:04.830Z,93937.22
2022-11-06T17:06:34.432Z,93953.78
2022-11-06T17:09:26.907Z,93952.22
2022-11-06T17:11:54.775Z,93952.03
2022-11-06T17:14:22.040Z,93944.66
2022-11-06T17:16:56.249Z,93949.19
2022-11-06T17:19:25.026Z,93933.56
2022-11-06T17:21:52.157Z,93956.22
2022-11-06T17:27:06.531Z,93957.81
2022-11-06T17:29:36.103Z,93956.88
2022-11-06T17:32:03.382Z,93945.44
2022-11-06T17:34:30.084Z,93959.91
2022-11-06T17:36:56.875Z,93958.50
2022-11-06T17:39:23.628Z,93954.16
2022-11-06T17:41:50.422Z,93952.75
2022-11-06T17:44:17.462Z,93955.91
2022-11-06T17:46:46.594Z,93952.47
2022-11-06T17:49:18.144Z,93945.72
2022-11-06T17:52:01.146Z,93940.88
2022-11-06T17:54:33.379Z,93948.91
2022-11-06T17:57:02.685Z,93943.91
2022-11-06T17:59:29.433Z,93943.72
2022-11-06T18:01:57.511Z,93923.34
2022-11-06T18:04:26.280Z,93933.06
2022-11-06T18:06:54.192Z,93941.94
2022-11-06T18:09:22.438Z,93943.03
2022-11-06T18:11:54.369Z,93953.00
2022-11-06T18:14:22.257Z,93939.03
2022-11-06T18:16:49.445Z,93944.22
2022-11-06T18:19:18.397Z,93951.69
2022-11-06T18:21:45.329Z,93959.00
2022-11-06T18:24:12.718Z,93955.56
2022-11-06T18:26:39.595Z,93963.06
2022-11-06T18:29:08.244Z,93958.03
2022-11-06T18:31:35.540Z,93959.13
2022-11-06T18:34:02.859Z,93969.28
2022-11-06T18:36:29.562Z,93963.00
2022-11-06T18:38:56.255Z,93974.59
2022-11-06T18:41:23.167Z,93948.78
2022-11-06T18:43:49.959Z,93936.28
2022-11-06T18:46:18.867Z,93932.84
2022-11-06T18:48:45.981Z,93951.03
2022-11-06T18:51:23.683Z,93968.88
2022-11-06T18:54:02.089Z,93976.16
2022-11-06T18:56:28.908Z,93973.50
2022-11-06T18:58:55.724Z,93975.88
2022-11-06T19:01:26.606Z,93977.75
2022-11-06T19:03:54.118Z,93974.78
2022-11-06T19:06:21.911Z,93980.28
2022-11-06T19:08:49.129Z,93973.41
2022-11-06T19:11:18.219Z,93982.16
2022-11-06T19:13:48.239Z,93976.06
2022-11-06T19:16:16.756Z,93982.47
2022-11-06T19:18:43.520Z,93981.97
2022-11-06T19:21:11.470Z,93988.38
2022-11-06T19:23:40.485Z,93983.53
2022-11-06T19:26:33.007Z,93974.00
2022-11-06T19:28:56.386Z,93985.41
2022-11-06T19:31:28.797Z,93979.78
2022-11-06T19:33:56.766Z,93984.03
2022-11-06T19:36:25.329Z,93979.50
2022-11-06T19:38:52.687Z,93979.19
2022-11-06T19:41:19.687Z,93982.34
2022-11-06T19:43:46.412Z,93994.84
2022-11-06T19:46:13.160Z,93995.63
2022-11-06T19:48:41.175Z,93983.63
2022-11-06T19:51:15.299Z,93993.47
2022-11-06T19:53:42.694Z,93996.91
2022-11-06T19:56:12.714Z,93994.09
2022-11-06T19:58:39.402Z,93996.16
2022-11-06T20:01:13.176Z,93987.56
2022-11-06T20:03:40.654Z,93991.22
2022-11-06T20:06:08.355Z,93990.91
2022-11-06T20:08:37.050Z,93998.28
2022-11-06T20:11:09.491Z,94008.13
2022-11-06T20:13:39.216Z,94021.28
2022-11-06T20:16:07.938Z,94031.94
2022-11-06T20:18:35.984Z,94032.13
2022-11-06T20:21:05.734Z,94034.16
2022-11-06T20:23:33.858Z,94036.22
2022-11-06T20:26:00.668Z,94026.84
2022-11-06T20:28:28.018Z,94031.38
2022-11-06T20:30:54.899Z,94037.69
2022-11-06T20:33:21.947Z,94045.19
2022-11-06T20:35:48.854Z,94039.38
2022-11-06T20:38:16.267Z,94052.06
2022-11-06T20:40:43.278Z,94050.38
2022-11-06T20:43:10.167Z,94047.22
2022-11-06T20:45:37.540Z,94057.28
2022-11-06T20:48:05.642Z,94065.56
2022-11-06T20:50:32.617Z,94064.16
2022-11-06T20:52:59.739Z,94069.31
2022-11-06T20:55:26.476Z,94076.81
2022-11-06T20:57:53.198Z,94074.16
2022-11-06T21:00:19.969Z,94067.44
2022-11-06T21:02:47.074Z,94074.16
2022-11-06T21:05:15.127Z,94075.22
2022-11-06T21:07:42.027Z,94071.00
2022-11-06T21:10:11.016Z,94079.94
2022-11-06T21:12:38.216Z,94087.94
2022-11-06T21:15:05.485Z,94091.69
2022-11-06T21:17:32.261Z,94088.13
2022-11-06T21:19:58.941Z,94085.47
2022-11-06T21:22:25.744Z,94082.31
2022-11-06T21:24:52.411Z,94083.09
2022-11-06T21:27:19.075Z,94082.63
2022-11-06T21:29:45.825Z,94079.16
2022-11-06T21:32:41.481Z,94071.66
2022-11-06T21:35:08.524Z,94082.31
2022-11-06T21:37:35.230Z,94078.06
2022-11-06T21:40:02.009Z,94077.00
2022-11-06T21:42:28.890Z,94089.22
2022-11-06T21:44:55.647Z,94079.94
2022-11-06T21:47:22.379Z,94083.22
2022-11-06T21:49:54.064Z,94091.97
2022-11-06T21:52:40.651Z,94092.28
2022-11-06T21:55:26.881Z,94096.81
2022-11-06T21:57:53.709Z,94102.63
2022-11-06T22:00:20.540Z,94101.25
2022-11-06T22:02:47.492Z,94095.78
2022-11-06T22:05:14.340Z,94100.97
2022-11-06T22:07:41.134Z,94094.56
2022-11-06T22:10:08.279Z,94098.50
2022-11-06T22:12:35.399Z,94101.34
2022-11-06T22:15:02.210Z,94107.44
2022-11-06T22:17:30.352Z,94112.19
2022-11-06T22:19:58.501Z,94106.84
2022-11-06T22:22:25.770Z,94106.56
2022-11-06T22:24:52.418Z,94099.66
2022-11-06T22:27:19.164Z,94104.19
2022-11-06T22:29:45.846Z,94103.41
2022-11-06T22:32:12.610Z,94123.78
2022-11-06T22:34:39.332Z,94118.47
2022-11-06T22:37:06.104Z,94114.69
2022-11-06T22:39:33.120Z,94111.09
2022-11-06T22:42:00.068Z,94122.22
2022-11-06T22:44:27.210Z,94123.78
2022-11-06T22:46:54.413Z,94120.34
2022-11-06T22:49:21.462Z,94116.41
2022-11-06T22:51:48.548Z,94119.06
2022-11-06T22:54:17.214Z,94118.59
2022-11-06T22:56:44.056Z,94117.63
2022-11-06T22:59:13.610Z,94124.03
2022-11-06T23:01:42.716Z,94127.88
2022-11-06T23:04:17.257Z,94139.03
2022-11-06T23:06:45.512Z,94132.13
2022-11-06T23:09:13.641Z,94137.94
2022-11-06T23:11:40.947Z,94141.19
2022-11-06T23:14:09.349Z,94147.59
2022-11-06T23:16:56.937Z,94145.53
2022-11-06T23:19:24.312Z,94148.75
2022-11-06T23:21:52.497Z,94144.63
2022-11-06T23:24:19.701Z,94147.59
2022-11-06T23:26:47.537Z,94150.53
2022-11-06T23:29:14.566Z,94152.91
2022-11-06T23:31:41.764Z,94153.88
2022-11-06T23:34:08.957Z,94157.16
2022-11-06T23:36:35.920Z,94157.16
2022-11-06T23:39:03.471Z,94154.00
2022-11-06T23:41:46.361Z,94147.59
2022-11-06T23:44:33.751Z,94156.75
2022-11-06T23:47:01.423Z,94163.22
2022-11-06T23:49:28.623Z,94159.47
2022-11-06T23:51:57.865Z,94161.34
2022-11-06T23:54:26.196Z,94170.63
2022-11-06T23:56:53.286Z,94167.63
2022-11-06T23:59:20.126Z,94172.66
